sensor_id;sensor_type;location;lat;lon;timestamp;pressure;altitude;pressure_sealevel;temperature;humidity
78582;BME280;67878;46.242;5.974;2024-02-26T00:08:37;93582.56;;;19.71;47.92
78582;BME280;67878;46.242;5.974;2024-02-26T00:11:02;93579.94;;;19.71;48.27
78582;BME280;67878;46.242;5.974;2024-02-26T00:13:28;93585.19;;;19.71;48.25
78582;BME280;67878;46.242;5.974;2024-02-26T00:15:53;93582.75;;;19.69;48.07
78582;BME280;67878;46.242;5.974;2024-02-26T00:18:18;93585.19;;;19.71;48.15
78582;BME280;67878;46.242;5.974;2024-02-26T00:20:44;93574.72;;;19.71;48.39
78582;BME280;67878;46.242;5.974;2024-02-26T00:23:09;93579.94;;;19.71;48.59
78582;BME280;67878;46.242;5.974;2024-02-26T00:25:35;93583.38;;;19.72;48.45
78582;BME280;67878;46.242;5.974;2024-02-26T00:28:01;93574.72;;;19.71;48.32
78582;BME280;67878;46.242;5.974;2024-02-26T00:30:27;93578.94;;;19.72;48.44
78582;BME280;67878;46.242;5.974;2024-02-26T00:32:54;93573.69;;;19.72;48.74
78582;BME280;67878;46.242;5.974;2024-02-26T00:35:22;93575.50;;;19.72;48.50
78582;BME280;67878;46.242;5.974;2024-02-26T00:37:51;93576.50;;;19.70;48.66
78582;BME280;67878;46.242;5.974;2024-02-26T00:40:20;93577.34;;;19.71;48.66
78582;BME280;67878;46.242;5.974;2024-02-26T00:42:49;93577.34;;;19.71;48.38
78582;BME280;67878;46.242;5.974;2024-02-26T00:45:21;93580.94;;;19.70;48.67
78582;BME280;67878;46.242;5.974;2024-02-26T00:47:50;93570.28;;;19.72;48.49
78582;BME280;67878;46.242;5.974;2024-02-26T00:50:22;93572.09;;;19.71;48.70
78582;BME280;67878;46.242;5.974;2024-02-26T00:52:54;93566.84;;;19.71;48.69
78582;BME280;67878;46.242;5.974;2024-02-26T00:55:23;93558.41;;;19.69;48.65
78582;BME280;67878;46.242;5.974;2024-02-26T00:57:51;93556.56;;;19.69;48.67
78582;BME280;67878;46.242;5.974;2024-02-26T01:00:23;93559.19;;;19.69;48.49
78582;BME280;67878;46.242;5.974;2024-02-26T01:02:52;93562.00;;;19.68;48.59
78582;BME280;67878;46.242;5.974;2024-02-26T01:05:27;93561.81;;;19.69;48.42
78582;BME280;67878;46.242;5.974;2024-02-26T01:07:59;93559.19;;;19.69;48.43
78582;BME280;67878;46.242;5.974;2024-02-26T01:10:25;93559.38;;;19.68;48.21
78582;BME280;67878;46.242;5.974;2024-02-26T02:11:41;93519.69;;;19.78;48.83
78582;BME280;67878;46.242;5.974;2024-02-26T02:14:06;93528.75;;;19.75;48.67
78582;BME280;67878;46.242;5.974;2024-02-26T02:16:32;93532.16;;;19.76;48.83
78582;BME280;67878;46.242;5.974;2024-02-26T02:18:58;93520.91;;;19.75;48.85
78582;BME280;67878;46.242;5.974;2024-02-26T02:21:24;93524.53;;;19.74;48.91
78582;BME280;67878;46.242;5.974;2024-02-26T02:23:49;93514.25;;;19.73;48.72
78582;BME280;67878;46.242;5.974;2024-02-26T02:26:18;93512.44;;;19.73;48.84
78582;BME280;67878;46.242;5.974;2024-02-26T02:28:50;93498.16;;;19.69;48.70
78582;BME280;67878;46.242;5.974;2024-02-26T02:31:24;93500.56;;;19.70;48.39
78582;BME280;67878;46.242;5.974;2024-02-26T02:33:55;93497.13;;;19.70;48.04
78582;BME280;67878;46.242;5.974;2024-02-26T02:36:21;93487.69;;;19.69;48.40
78582;BME280;67878;46.242;5.974;2024-02-26T02:38:51;93496.53;;;19.68;48.22
78582;BME280;67878;46.242;5.974;2024-02-26T02:41:20;93494.94;;;19.67;48.30
78582;BME280;67878;46.242;5.974;2024-02-26T02:43:49;93497.78;;;19.65;48.19
78582;BME280;67878;46.242;5.974;2024-02-26T02:46:16;93498.97;;;19.63;48.16
78582;BME280;67878;46.242;5.974;2024-02-26T02:48:44;93488.69;;;19.61;48.04
78582;BME280;67878;46.242;5.974;2024-02-26T02:51:16;93496.34;;;19.63;48.00
78582;BME280;67878;46.242;5.974;2024-02-26T02:53:47;93497.34;;;19.62;48.01
78582;BME280;67878;46.242;5.974;2024-02-26T02:56:16;93506.22;;;19.61;47.91
78582;BME280;67878;46.242;5.974;2024-02-26T02:58:48;93499.16;;;19.61;47.77
78582;BME280;67878;46.242;5.974;2024-02-26T03:01:16;93502.00;;;19.60;47.89
78582;BME280;67878;46.242;5.974;2024-02-26T03:03:45;93502.00;;;19.60;48.03
78582;BME280;67878;46.242;5.974;2024-02-26T03:06:14;93488.28;;;19.58;47.95
78582;BME280;67878;46.242;5.974;2024-02-26T03:08:43;93482.44;;;19.56;47.81
78582;BME280;67878;46.242;5.974;2024-02-26T03:11:16;93480.84;;;19.55;48.14
78582;BME280;67878;46.242;5.974;2024-02-26T03:13:45;93481.66;;;19.55;47.87
78582;BME280;67878;46.242;5.974;2024-02-26T03:16:15;93473.00;;;19.55;47.99
78582;BME280;67878;46.242;5.974;2024-02-26T03:18:45;93477.63;;;19.53;48.22
78582;BME280;67878;46.242;5.974;2024-02-26T03:21:16;93462.72;;;19.53;48.04
78582;BME280;67878;46.242;5.974;2024-02-26T03:23:44;93465.34;;;19.53;47.91
78582;BME280;67878;46.242;5.974;2024-02-26T03:26:09;93466.38;;;19.52;47.97
78582;BME280;67878;46.242;5.974;2024-02-26T03:28:38;93470.81;;;19.52;47.88
78582;BME280;67878;46.242;5.974;2024-02-26T03:31:04;93472.59;;;19.51;47.83
78582;BME280;67878;46.242;5.974;2024-02-26T03:33:32;93460.53;;;19.50;47.75
78582;BME280;67878;46.242;5.974;2024-02-26T03:36:05;93459.72;;;19.49;47.55
78582;BME280;67878;46.242;5.974;2024-02-26T03:38:35;93462.34;;;19.49;47.55
78582;BME280;67878;46.242;5.974;2024-02-26T03:41:03;93460.75;;;19.48;47.69
78582;BME280;67878;46.242;5.974;2024-02-26T03:43:34;93461.53;;;19.49;47.45
78582;BME280;67878;46.242;5.974;2024-02-26T03:46:02;93462.34;;;19.49;47.48
78582;BME280;67878;46.242;5.974;2024-02-26T03:48:29;93464.97;;;19.49;47.42
78582;BME280;67878;46.242;5.974;2024-02-26T03:50:56;93460.75;;;19.48;47.34
78582;BME280;67878;46.242;5.974;2024-02-26T03:53:23;93461.53;;;19.49;47.20
78582;BME280;67878;46.242;5.974;2024-02-26T03:55:51;93450.47;;;19.47;47.68
78582;BME280;67878;46.242;5.974;2024-02-26T03:58:20;93448.66;;;19.47;47.45
78582;BME280;67878;46.242;5.974;2024-02-26T04:00:51;93457.31;;;19.48;47.64
78582;BME280;67878;46.242;5.974;2024-02-26T04:03:20;93463.56;;;19.47;47.34
78582;BME280;67878;46.242;5.974;2024-02-26T04:05:49;93456.72;;;19.46;47.41
78582;BME280;67878;46.242;5.974;2024-02-26T04:08:18;93466.97;;;19.47;47.70
78582;BME280;67878;46.242;5.974;2024-02-26T04:10:48;93460.16;;;19.46;47.60
78582;BME280;67878;46.242;5.974;2024-02-26T04:13:18;93466.38;;;19.45;47.46
78582;BME280;67878;46.242;5.974;2024-02-26T04:15:47;93468.78;;;19.47;48.12
78582;BME280;67878;46.242;5.974;2024-02-26T04:18:15;93471.00;;;19.50;48.31
78582;BME280;67878;46.242;5.974;2024-02-26T04:20:48;93470.81;;;19.52;48.51
78582;BME280;67878;46.242;5.974;2024-02-26T04:23:18;93467.97;;;19.53;48.51
78582;BME280;67878;46.242;5.974;2024-02-26T04:25:53;93467.97;;;19.53;48.71
78582;BME280;67878;46.242;5.974;2024-02-26T04:28:20;93465.34;;;19.53;48.39
78582;BME280;67878;46.242;5.974;2024-02-26T04:30:47;93456.50;;;19.54;48.37
78582;BME280;67878;46.242;5.974;2024-02-26T04:33:13;93456.28;;;19.56;48.33
78582;BME280;67878;46.242;5.974;2024-02-26T04:35:38;93463.31;;;19.55;48.72
78582;BME280;67878;46.242;5.974;2024-02-26T04:38:07;93458.88;;;19.56;48.91
78582;BME280;67878;46.242;5.974;2024-02-26T04:40:36;93448.41;;;19.56;48.53
78582;BME280;67878;46.242;5.974;2024-02-26T04:43:07;93450.84;;;19.57;48.35
78582;BME280;67878;46.242;5.974;2024-02-26T04:45:42;93445.78;;;19.56;48.37
78582;BME280;67878;46.242;5.974;2024-02-26T04:48:11;93439.75;;;19.55;48.31
78582;BME280;67878;46.242;5.974;2024-02-26T04:50:40;93429.47;;;19.54;48.27
78582;BME280;67878;46.242;5.974;2024-02-26T04:53:09;93428.50;;;19.55;48.40
78582;BME280;67878;46.242;5.974;2024-02-26T04:55:38;93437.34;;;19.54;48.33
78582;BME280;67878;46.242;5.974;2024-02-26T04:58:07;93438.38;;;19.53;48.38
78582;BME280;67878;46.242;5.974;2024-02-26T05:00:37;93435.94;;;19.51;48.07
78582;BME280;67878;46.242;5.974;2024-02-26T05:03:06;93425.69;;;19.49;47.99
78582;BME280;67878;46.242;5.974;2024-02-26T05:05:49;93432.75;;;19.49;47.91
78582;BME280;67878;46.242;5.974;2024-02-26T05:08:19;93437.75;;;19.51;47.83
78582;BME280;67878;46.242;5.974;2024-02-26T05:10:49;93431.72;;;19.50;47.56
78582;BME280;67878;46.242;5.974;2024-02-26T05:13:17;93437.75;;;19.51;47.53
78582;BME280;67878;46.242;5.974;2024-02-26T05:15:46;93440.97;;;19.53;47.39
78582;BME280;67878;46.242;5.974;2024-02-26T05:18:17;93440.38;;;19.51;47.46
78582;BME280;67878;46.242;5.974;2024-02-26T05:20:46;93443.78;;;19.51;47.51
78582;BME280;67878;46.242;5.974;2024-02-26T05:23:16;93440.38;;;19.51;47.50
78582;BME280;67878;46.242;5.974;2024-02-26T05:25:45;93427.28;;;19.51;47.63
78582;BME280;67878;46.242;5.974;2024-02-26T05:28:17;93427.28;;;19.51;47.57
78582;BME280;67878;46.242;5.974;2024-02-26T05:30:49;93421.06;;;19.52;47.27
78582;BME280;67878;46.242;5.974;2024-02-26T05:33:17;93430.94;;;19.49;47.34
78582;BME280;67878;46.242;5.974;2024-02-26T05:35:47;93435.13;;;19.51;47.12
78582;BME280;67878;46.242;5.974;2024-02-26T05:38:16;93429.09;;;19.50;47.32
78582;BME280;67878;46.242;5.974;2024-02-26T05:40:45;93429.91;;;19.51;47.32
78582;BME280;67878;46.242;5.974;2024-02-26T05:43:13;93407.97;;;19.45;47.25
78582;BME280;67878;46.242;5.974;2024-02-26T05:45:48;93430.94;;;19.49;47.40
78582;BME280;67878;46.242;5.974;2024-02-26T05:48:17;93423.88;;;19.50;47.19
78582;BME280;67878;46.242;5.974;2024-02-26T05:50:47;93432.53;;;19.51;47.18
78582;BME280;67878;46.242;5.974;2024-02-26T05:53:16;93439.38;;;19.52;47.14
78582;BME280;67878;46.242;5.974;2024-02-26T05:55:46;93429.91;;;19.51;47.23
78582;BME280;67878;46.242;5.974;2024-02-26T05:58:15;93419.84;;;19.47;47.08
78582;BME280;67878;46.242;5.974;2024-02-26T06:00:45;93425.09;;;19.47;47.02
78582;BME280;67878;46.242;5.974;2024-02-26T06:03:15;93428.50;;;19.48;47.10
78582;BME280;67878;46.242;5.974;2024-02-26T06:05:44;93434.56;;;19.48;47.30
78582;BME280;67878;46.242;5.974;2024-02-26T06:08:14;93423.25;;;19.48;47.07
78582;BME280;67878;46.242;5.974;2024-02-26T06:10:43;93426.72;;;19.48;47.03
78582;BME280;67878;46.242;5.974;2024-02-26T06:13:12;93428.31;;;19.49;47.08
78582;BME280;67878;46.242;5.974;2024-02-26T06:15:44;93429.91;;;19.51;47.41
78582;BME280;67878;46.242;5.974;2024-02-26T06:18:12;93427.28;;;19.51;47.53
78582;BME280;67878;46.242;5.974;2024-02-26T06:20:39;93431.72;;;19.50;47.51
78582;BME280;67878;46.242;5.974;2024-02-26T06:23:06;93432.75;;;19.49;47.88
78582;BME280;67878;46.242;5.974;2024-02-26T06:25:35;93429.53;;;19.47;47.74
78582;BME280;67878;46.242;5.974;2024-02-26T06:28:03;93443.41;;;19.47;47.56
78582;BME280;67878;46.242;5.974;2024-02-26T06:30:32;93443.41;;;19.47;47.84
78582;BME280;67878;46.242;5.974;2024-02-26T06:33:05;93440.19;;;19.45;47.95
78582;BME280;67878;46.242;5.974;2024-02-26T06:35:34;93439.38;;;19.45;48.05
78582;BME280;67878;46.242;5.974;2024-02-26T06:38:02;93432.56;;;19.44;47.81
78582;BME280;67878;46.242;5.974;2024-02-26T06:40:30;93441.22;;;19.44;47.89
78582;BME280;67878;46.242;5.974;2024-02-26T06:42:59;93448.47;;;19.42;48.09
78582;BME280;67878;46.242;5.974;2024-02-26T06:45:28;93450.28;;;19.42;48.03
78582;BME280;67878;46.242;5.974;2024-02-26T06:48:00;93445.25;;;19.40;48.06
78582;BME280;67878;46.242;5.974;2024-02-26T06:50:32;93453.91;;;19.41;48.17
78582;BME280;67878;46.242;5.974;2024-02-26T06:53:00;93459.34;;;19.39;48.30
78582;BME280;67878;46.242;5.974;2024-02-26T06:55:28;93452.50;;;19.38;48.31
78582;BME280;67878;46.242;5.974;2024-02-26T06:57:58;93455.13;;;19.38;48.20
78582;BME280;67878;46.242;5.974;2024-02-26T07:00:30;93458.78;;;19.37;48.56
78582;BME280;67878;46.242;5.974;2024-02-26T07:02:58;93461.38;;;19.37;48.28
78582;BME280;67878;46.242;5.974;2024-02-26T07:05:25;93467.63;;;19.36;48.37
78582;BME280;67878;46.242;5.974;2024-02-26T07:07:54;93469.63;;;19.34;48.41
78582;BME280;67878;46.242;5.974;2024-02-26T07:10:25;93470.47;;;19.35;48.47
78582;BME280;67878;46.242;5.974;2024-02-26T07:13:00;93473.06;;;19.35;48.87
78582;BME280;67878;46.242;5.974;2024-02-26T07:15:30;93474.84;;;19.34;48.15
78582;BME280;67878;46.242;5.974;2024-02-26T07:18:00;93475.69;;;19.35;47.68
78582;BME280;67878;46.242;5.974;2024-02-26T07:20:31;93462.59;;;19.35;47.83
78582;BME280;67878;46.242;5.974;2024-02-26T07:23:00;93474.66;;;19.36;47.86
78582;BME280;67878;46.242;5.974;2024-02-26T07:25:28;93479.72;;;19.37;47.59
78582;BME280;67878;46.242;5.974;2024-02-26T07:27:55;93484.72;;;19.39;47.29
78582;BME280;67878;46.242;5.974;2024-02-26T07:30:23;93485.53;;;19.39;47.16
78582;BME280;67878;46.242;5.974;2024-02-26T07:32:52;93487.56;;;19.37;46.95
78582;BME280;67878;46.242;5.974;2024-02-26T07:35:21;93484.94;;;19.37;46.95
78582;BME280;67878;46.242;5.974;2024-02-26T07:37:48;93486.75;;;19.37;47.05
78582;BME280;67878;46.242;5.974;2024-02-26T07:40:15;93484.94;;;19.37;46.93
78582;BME280;67878;46.242;5.974;2024-02-26T07:42:41;93478.69;;;19.38;47.16
78582;BME280;67878;46.242;5.974;2024-02-26T07:45:07;93476.25;;;19.37;46.94
78582;BME280;67878;46.242;5.974;2024-02-26T07:47:33;93469.03;;;19.39;47.52
78582;BME280;67878;46.242;5.974;2024-02-26T07:50:01;93465.19;;;19.41;47.44
78582;BME280;67878;46.242;5.974;2024-02-26T07:52:27;93481.28;;;19.45;47.25
78582;BME280;67878;46.242;5.974;2024-02-26T07:54:52;93488.13;;;19.46;47.29
78582;BME280;67878;46.242;5.974;2024-02-26T07:57:20;93476.47;;;19.48;47.49
78582;BME280;67878;46.242;5.974;2024-02-26T07:59:46;93480.06;;;19.54;47.47
78582;BME280;67878;46.242;5.974;2024-02-26T08:02:15;93487.50;;;19.57;47.55
78582;BME280;67878;46.242;5.974;2024-02-26T08:04:41;93489.91;;;19.59;47.66
78582;BME280;67878;46.242;5.974;2024-02-26T08:07:09;93495.50;;;19.62;47.23
78582;BME280;67878;46.242;5.974;2024-02-26T08:09:38;93490.50;;;19.61;47.36
78582;BME280;67878;46.242;5.974;2024-02-26T08:12:04;93490.50;;;19.61;47.21
78582;BME280;67878;46.242;5.974;2024-02-26T08:14:30;93491.09;;;19.63;47.32
78582;BME280;67878;46.242;5.974;2024-02-26T08:16:58;93495.31;;;19.64;47.29
78582;BME280;67878;46.242;5.974;2024-02-26T08:19:24;93487.31;;;19.65;47.36
78582;BME280;67878;46.242;5.974;2024-02-26T08:21:51;93494.94;;;19.67;47.37
78582;BME280;67878;46.242;5.974;2024-02-26T08:24:17;93491.69;;;19.65;47.36
78582;BME280;67878;46.242;5.974;2024-02-26T08:26:43;93504.59;;;19.66;46.98
78582;BME280;67878;46.242;5.974;2024-02-26T08:29:08;93508.25;;;19.65;47.08
78582;BME280;67878;46.242;5.974;2024-02-26T08:31:34;93496.13;;;19.64;47.27
78582;BME280;67878;46.242;5.974;2024-02-26T08:34:05;93480.63;;;19.63;47.02
78582;BME280;67878;46.242;5.974;2024-02-26T08:36:34;93478.59;;;19.65;47.09
78582;BME280;67878;46.242;5.974;2024-02-26T08:39:01;93494.94;;;19.67;47.19
78582;BME280;67878;46.242;5.974;2024-02-26T08:41:26;93490.50;;;19.67;47.06
78582;BME280;67878;46.242;5.974;2024-02-26T08:43:52;93486.88;;;19.68;46.95
78582;BME280;67878;46.242;5.974;2024-02-26T08:46:17;93481.22;;;19.72;46.73
78582;BME280;67878;46.242;5.974;2024-02-26T08:48:43;93492.09;;;19.75;46.35
78582;BME280;67878;46.242;5.974;2024-02-26T08:51:09;93485.22;;;19.81;46.10
78582;BME280;67878;46.242;5.974;2024-02-26T08:53:38;93482.78;;;19.86;45.93
78582;BME280;67878;46.242;5.974;2024-02-26T08:56:05;93494.44;;;19.90;46.09
78582;BME280;67878;46.242;5.974;2024-02-26T08:58:31;93494.00;;;19.93;45.75
78582;BME280;67878;46.242;5.974;2024-02-26T09:00:57;93495.22;;;19.97;45.45
78582;BME280;67878;46.242;5.974;2024-02-26T09:03:23;93504.06;;;20.03;45.29
78582;BME280;67878;46.242;5.974;2024-02-26T09:05:49;93494.38;;;20.03;45.25
78582;BME280;67878;46.242;5.974;2024-02-26T09:08:15;93505.66;;;20.04;45.50
78582;BME280;67878;46.242;5.974;2024-02-26T09:10:41;93510.88;;;20.04;45.39
78582;BME280;67878;46.242;5.974;2024-02-26T09:13:07;93512.72;;;20.03;45.52
78582;BME280;67878;46.242;5.974;2024-02-26T09:15:33;93505.66;;;20.04;45.33
78582;BME280;67878;46.242;5.974;2024-02-26T09:17:59;93516.13;;;20.04;45.38
78582;BME280;67878;46.242;5.974;2024-02-26T09:20:25;93510.88;;;20.04;45.31
78582;BME280;67878;46.242;5.974;2024-02-26T09:22:53;93521.19;;;20.05;45.24
78582;BME280;67878;46.242;5.974;2024-02-26T09:25:20;93519.13;;;20.07;45.21
78582;BME280;67878;46.242;5.974;2024-02-26T09:27:46;93519.72;;;20.09;45.14
78582;BME280;67878;46.242;5.974;2024-02-26T09:30:13;93522.16;;;20.11;45.02
78582;BME280;67878;46.242;5.974;2024-02-26T09:32:46;93526.38;;;20.12;44.75
78582;BME280;67878;46.242;5.974;2024-02-26T09:35:14;93526.38;;;20.12;44.92
78582;BME280;67878;46.242;5.974;2024-02-26T09:37:41;93520.94;;;20.07;44.84
78582;BME280;67878;46.242;5.974;2024-02-26T09:40:10;93524.78;;;20.11;44.96
78582;BME280;67878;46.242;5.974;2024-02-26T09:42:45;93531.84;;;20.10;44.89
78582;BME280;67878;46.242;5.974;2024-02-26T09:45:19;93534.66;;;20.09;44.65
78582;BME280;67878;46.242;5.974;2024-02-26T09:47:50;93533.06;;;20.08;45.13
78582;BME280;67878;46.242;5.974;2024-02-26T09:50:21;93538.31;;;20.08;44.46
78582;BME280;67878;46.242;5.974;2024-02-26T09:52:51;93543.53;;;20.08;45.00
78582;BME280;67878;46.242;5.974;2024-02-26T09:55:18;93545.13;;;20.09;44.77
78582;BME280;67878;46.242;5.974;2024-02-26T09:57:46;93551.19;;;20.09;45.56
78582;BME280;67878;46.242;5.974;2024-02-26T10:00:19;93546.75;;;20.10;45.21
78582;BME280;67878;46.242;5.974;2024-02-26T10:02:47;93551.38;;;20.14;45.32
78582;BME280;67878;46.242;5.974;2024-02-26T10:05:19;93552.16;;;20.15;45.43
78582;BME280;67878;46.242;5.974;2024-02-26T10:07:48;93554.19;;;20.13;45.31
78582;BME280;67878;46.242;5.974;2024-02-26T10:10:14;93550.75;;;20.12;45.31
78582;BME280;67878;46.242;5.974;2024-02-26T10:12:41;93552.81;;;20.10;45.22
78582;BME280;67878;46.242;5.974;2024-02-26T10:15:07;93558.03;;;20.10;45.09
78582;BME280;67878;46.242;5.974;2024-02-26T10:17:34;93554.41;;;20.11;44.95
78582;BME280;67878;46.242;5.974;2024-02-26T10:20:18;93557.81;;;20.12;45.14
78582;BME280;67878;46.242;5.974;2024-02-26T10:22:47;93558.84;;;20.11;45.18
78582;BME280;67878;46.242;5.974;2024-02-26T10:25:15;93547.34;;;20.12;44.91
78582;BME280;67878;46.242;5.974;2024-02-26T10:27:42;93554.19;;;20.13;44.82
78582;BME280;67878;46.242;5.974;2024-02-26T10:30:20;93549.34;;;20.10;44.50
78582;BME280;67878;46.242;5.974;2024-02-26T10:32:49;93550.56;;;20.14;44.75
78582;BME280;67878;46.242;5.974;2024-02-26T10:35:17;93553.78;;;20.16;44.71
78582;BME280;67878;46.242;5.974;2024-02-26T10:37:47;93552.53;;;20.19;45.05
78582;BME280;67878;46.242;5.974;2024-02-26T10:40:16;93554.78;;;20.22;44.85
78582;BME280;67878;46.242;5.974;2024-02-26T10:42:45;93553.53;;;20.24;44.61
78582;BME280;67878;46.242;5.974;2024-02-26T10:45:14;93555.75;;;20.27;44.82
78582;BME280;67878;46.242;5.974;2024-02-26T10:47:40;93549.25;;;20.30;44.69
78582;BME280;67878;46.242;5.974;2024-02-26T10:50:08;93564.59;;;20.33;44.55
78582;BME280;67878;46.242;5.974;2024-02-26T10:52:35;93556.72;;;20.33;44.85
78582;BME280;67878;46.242;5.974;2024-02-26T10:55:02;93563.75;;;20.32;44.79
78582;BME280;67878;46.242;5.974;2024-02-26T11:00:00;93570.03;;;20.31;44.68
78582;BME280;67878;46.242;5.974;2024-02-26T11:02:26;93569.44;;;20.29;44.68
78582;BME280;67878;46.242;5.974;2024-02-26T11:04:52;93571.25;;;20.29;44.83
78582;BME280;67878;46.242;5.974;2024-02-26T11:07:21;93574.66;;;20.29;45.04
78582;BME280;67878;46.242;5.974;2024-02-26T11:09:56;93573.06;;;20.28;44.67
78582;BME280;67878;46.242;5.974;2024-02-26T11:12:29;93578.31;;;20.28;44.84
78582;BME280;67878;46.242;5.974;2024-02-26T11:14:59;93572.22;;;20.34;44.83
78582;BME280;67878;46.242;5.974;2024-02-26T11:17:29;93575.59;;;20.48;44.67
78582;BME280;67878;46.242;5.974;2024-02-26T11:20:01;93577.63;;;20.53;44.43
78582;BME280;67878;46.242;5.974;2024-02-26T11:22:36;93569.91;;;20.51;44.68
78582;BME280;67878;46.242;5.974;2024-02-26T11:25:08;93573.56;;;20.50;44.64
78582;BME280;67878;46.242;5.974;2024-02-26T11:27:49;93566.69;;;20.49;44.59
78582;BME280;67878;46.242;5.974;2024-02-26T11:30:19;93568.75;;;20.47;44.70
78582;BME280;67878;46.242;5.974;2024-02-26T11:32:48;93557.44;;;20.47;44.42
78582;BME280;67878;46.242;5.974;2024-02-26T11:35:16;93560.66;;;20.49;45.08
78582;BME280;67878;46.242;5.974;2024-02-26T11:37:56;93559.44;;;20.51;45.06
78582;BME280;67878;46.242;5.974;2024-02-26T11:40:27;93535.44;;;20.54;44.76
78582;BME280;67878;46.242;5.974;2024-02-26T11:42:55;93535.00;;;20.57;44.75
78582;BME280;67878;46.242;5.974;2024-02-26T11:48:17;93532.78;;;20.61;44.49
78582;BME280;67878;46.242;5.974;2024-02-26T11:53:28;93526.69;;;20.67;44.81
78582;BME280;67878;46.242;5.974;2024-02-26T11:56:23;93523.25;;;20.67;45.01
78582;BME280;67878;46.242;5.974;2024-02-26T11:59:01;93528.28;;;20.68;46.01
78582;BME280;67878;46.242;5.974;2024-02-26T12:01:48;93516.81;;;20.63;45.73
78582;BME280;67878;46.242;5.974;2024-02-26T12:04:22;93522.00;;;20.69;46.22
78582;BME280;67878;46.242;5.974;2024-02-26T12:06:56;93513.78;;;20.66;45.73
78582;BME280;67878;46.242;5.974;2024-02-26T12:12:09;93519.63;;;20.68;45.49
78582;BME280;67878;46.242;5.974;2024-02-26T12:14:51;93517.41;;;20.65;45.89
78582;BME280;67878;46.242;5.974;2024-02-26T12:17:24;93518.81;;;20.67;46.67
78582;BME280;67878;46.242;5.974;2024-02-26T12:19:55;93525.88;;;20.67;46.15
78582;BME280;67878;46.242;5.974;2024-02-26T12:22:40;93521.44;;;20.67;45.85
78582;BME280;67878;46.242;5.974;2024-02-26T12:25:11;93519.81;;;20.66;46.27
78582;BME280;67878;46.242;5.974;2024-02-26T12:27:40;93510.16;;;20.67;46.36
78582;BME280;67878;46.242;5.974;2024-02-26T12:30:09;93517.19;;;20.66;46.57
78582;BME280;67878;46.242;5.974;2024-02-26T12:32:37;93521.22;;;20.69;46.45
78582;BME280;67878;46.242;5.974;2024-02-26T12:35:06;93518.38;;;20.70;46.63
78582;BME280;67878;46.242;5.974;2024-02-26T12:37:33;93521.00;;;20.70;46.50
78582;BME280;67878;46.242;5.974;2024-02-26T12:40:01;93524.63;;;20.69;47.11
78582;BME280;67878;46.242;5.974;2024-02-26T12:42:27;93523.84;;;20.69;46.45
78582;BME280;67878;46.242;5.974;2024-02-26T12:44:52;93515.41;;;20.67;46.58
78582;BME280;67878;46.242;5.974;2024-02-26T12:47:18;93518.03;;;20.67;46.65
78582;BME280;67878;46.242;5.974;2024-02-26T12:49:48;93513.16;;;20.64;47.52
78582;BME280;67878;46.242;5.974;2024-02-26T12:52:14;93516.03;;;20.62;46.91
78582;BME280;67878;46.242;5.974;2024-02-26T12:54:41;93523.09;;;20.62;47.33
78582;BME280;67878;46.242;5.974;2024-02-26T12:57:08;93519.66;;;20.61;47.54
78582;BME280;67878;46.242;5.974;2024-02-26T12:59:35;93513.81;;;20.59;47.58
78582;BME280;67878;46.242;5.974;2024-02-26T13:02:02;93520.06;;;20.58;47.32
78582;BME280;67878;46.242;5.974;2024-02-26T13:04:29;93520.31;;;20.56;47.67
78582;BME280;67878;46.242;5.974;2024-02-26T13:06:55;93523.94;;;20.55;47.13
78582;BME280;67878;46.242;5.974;2024-02-26T13:09:20;93522.31;;;20.54;47.35
78582;BME280;67878;46.242;5.974;2024-02-26T13:11:53;93517.31;;;20.53;47.16
78582;BME280;67878;46.242;5.974;2024-02-26T13:14:22;93517.47;;;20.51;47.95
78582;BME280;67878;46.242;5.974;2024-02-26T13:16:58;93514.06;;;20.51;47.58
78582;BME280;67878;46.242;5.974;2024-02-26T13:19:23;93516.69;;;20.51;47.83
78582;BME280;67878;46.242;5.974;2024-02-26T13:21:49;93510.84;;;20.49;47.66
78582;BME280;67878;46.242;5.974;2024-02-26T13:24:14;93515.06;;;20.50;47.77
78582;BME280;67878;46.242;5.974;2024-02-26T13:26:40;93511.84;;;20.48;47.70
78582;BME280;67878;46.242;5.974;2024-02-26T13:29:05;93516.31;;;20.47;47.45
78582;BME280;67878;46.242;5.974;2024-02-26T13:31:31;93516.50;;;20.46;47.45
78582;BME280;67878;46.242;5.974;2024-02-26T13:34:03;93507.84;;;20.45;47.33
78582;BME280;67878;46.242;5.974;2024-02-26T13:36:28;93513.88;;;20.46;47.06
78582;BME280;67878;46.242;5.974;2024-02-26T13:38:55;93512.28;;;20.45;46.85
78582;BME280;67878;46.242;5.974;2024-02-26T13:41:24;93514.09;;;20.44;47.03
78582;BME280;67878;46.242;5.974;2024-02-26T13:43:50;93506.25;;;20.44;47.29
78582;BME280;67878;46.242;5.974;2024-02-26T13:46:15;93510.88;;;20.42;47.58
78582;BME280;67878;46.242;5.974;2024-02-26T13:48:42;93505.84;;;20.41;47.49
78582;BME280;67878;46.242;5.974;2024-02-26T13:51:07;93507.47;;;20.42;47.53
78582;BME280;67878;46.242;5.974;2024-02-26T13:53:33;93513.69;;;20.41;47.50
78582;BME280;67878;46.242;5.974;2024-02-26T13:55:58;93509.50;;;20.40;47.51
78582;BME280;67878;46.242;5.974;2024-02-26T13:58:26;93502.66;;;20.38;47.60
78582;BME280;67878;46.242;5.974;2024-02-26T14:00:53;93501.81;;;20.38;47.46
78582;BME280;67878;46.242;5.974;2024-02-26T14:03:19;93507.88;;;20.38;47.21
78582;BME280;67878;46.242;5.974;2024-02-26T14:05:45;93507.06;;;20.38;47.24
78582;BME280;67878;46.242;5.974;2024-02-26T14:08:11;93505.47;;;20.37;47.45
78582;BME280;67878;46.242;5.974;2024-02-26T14:10:36;93516.75;;;20.37;47.46
78582;BME280;67878;46.242;5.974;2024-02-26T14:13:03;93510.91;;;20.35;47.65
78582;BME280;67878;46.242;5.974;2024-02-26T14:15:28;93506.50;;;20.36;47.50
78582;BME280;67878;46.242;5.974;2024-02-26T14:17:54;93508.09;;;20.37;47.66
78582;BME280;67878;46.242;5.974;2024-02-26T14:20:22;93510.09;;;20.35;47.35
78582;BME280;67878;46.242;5.974;2024-02-26T14:22:49;93503.28;;;20.34;47.09
78582;BME280;67878;46.242;5.974;2024-02-26T14:25:15;93505.66;;;20.35;47.37